Time;durP1;ratioP1;P1;durP2;ratioP2;P2;SDS_P1;SDS_P2;PMS_P1;PMS_P2;Temp;Humidity;BMP_temperature;BMP_pressure;BME280_temperature;BME280_humidity;BME280_pressure;Samples;Min_cycle;Max_cycle;Signal;HPM_P1;HPM_P2
2021/04/24 00:00:14;;;;;;;8.00;6.07;;;;;;;9.76;46.18;96885.78;5077213;28;20607;-87
2021/04/24 00:02:41;;;;;;;12.30;5.80;;;;;;;9.72;46.39;96882.69;5077716;28;20827;-86
2021/04/24 00:05:10;;;;;;;15.03;6.40;;;;;;;9.72;45.83;96888.06;5077018;28;20808;-86
2021/04/24 00:07:36;;;;;;;12.47;6.67;;;;;;;9.63;46.52;96881.16;5076744;28;20464;-87
2021/04/24 00:10:03;;;;;;;9.73;5.70;;;;;;;9.58;46.30;96876.59;5076895;28;20502;-86
2021/04/24 00:12:30;;;;;;;10.53;5.67;;;;;;;9.56;46.77;96878.34;5076872;28;20482;-85
2021/04/24 00:14:56;;;;;;;13.97;6.53;;;;;;;9.60;46.62;96871.41;5076033;28;20865;-85
2021/04/24 00:17:23;;;;;;;12.13;6.40;;;;;;;9.63;46.38;96878.47;5076241;28;20837;-85
2021/04/24 00:19:49;;;;;;;19.37;6.50;;;;;;;9.52;46.69;96877.97;5076597;28;20531;-86
2021/04/24 00:22:15;;;;;;;13.17;6.90;;;;;;;9.48;46.83;96872.88;5076511;28;20819;-86
2021/04/24 00:24:41;;;;;;;10.17;6.30;;;;;;;9.45;46.96;96870.50;5076423;28;20443;-86
2021/04/24 00:27:07;;;;;;;13.07;7.10;;;;;;;9.42;47.23;96871.53;5075943;28;20833;-86
2021/04/24 00:29:34;;;;;;;18.13;6.87;;;;;;;9.43;47.20;96870.31;5075733;28;20433;-86
2021/04/24 00:32:01;;;;;;;11.60;6.60;;;;;;;9.51;47.14;96871.13;5076311;28;20445;-86
2021/04/24 00:34:28;;;;;;;29.53;7.13;;;;;;;9.35;47.45;96872.16;5077412;28;20445;-86
2021/04/24 00:36:54;;;;;;;11.77;7.37;;;;;;;9.31;47.52;96864.38;5076038;28;20441;-85
2021/04/24 00:39:20;;;;;;;13.83;6.27;;;;;;;9.30;47.93;96852.19;5076402;28;20542;-86
2021/04/24 00:41:46;;;;;;;14.03;6.20;;;;;;;9.24;47.81;96861.63;5076164;28;20787;-86
2021/04/24 00:44:12;;;;;;;10.63;6.13;;;;;;;9.22;47.87;96861.38;5076103;28;20456;-85
2021/04/24 00:46:41;;;;;;;16.23;7.00;;;;;;;9.17;48.01;96859.53;5076724;28;20451;-86
2021/04/24 00:49:07;;;;;;;14.20;6.50;;;;;;;9.17;48.21;96846.81;5076815;28;20412;-86
2021/04/24 00:51:34;;;;;;;11.57;6.50;;;;;;;9.10;48.34;96848.16;5076895;28;20920;-86
2021/04/24 00:54:00;;;;;;;13.03;7.20;;;;;;;9.09;48.48;96843.25;5077543;28;20516;-86
2021/04/24 00:56:26;;;;;;;11.80;6.20;;;;;;;9.12;48.28;96844.91;5077754;28;20570;-86
2021/04/24 00:58:52;;;;;;;11.30;5.70;;;;;;;9.11;48.30;96838.09;5077885;28;20424;-86
2021/04/24 01:01:19;;;;;;;13.67;7.10;;;;;;;9.16;48.12;96831.88;5074426;28;20480;-86
2021/04/24 01:03:46;;;;;;;15.43;6.63;;;;;;;9.14;48.00;96842.47;5075747;28;20388;-86
2021/04/24 01:06:12;;;;;;;16.00;6.97;;;;;;;9.17;47.80;96836.03;5079794;28;20471;-86
2021/04/24 01:08:39;;;;;;;12.23;6.03;;;;;;;9.12;48.12;96834.16;5079969;28;21021;-87
2021/04/24 01:11:05;;;;;;;13.17;7.63;;;;;;;9.09;48.09;96835.19;5079359;28;20469;-86
2021/04/24 01:13:31;;;;;;;13.00;7.07;;;;;;;9.10;48.17;96831.28;5080056;28;20464;-86
2021/04/24 01:15:57;;;;;;;16.73;5.77;;;;;;;9.10;48.16;96831.28;5079759;28;20469;-87
2021/04/24 01:18:24;;;;;;;13.07;6.20;;;;;;;9.09;48.43;96827.13;5079973;28;20414;-87
2021/04/24 01:20:55;;;;;;;12.13;6.93;;;;;;;9.02;48.38;96830.44;5079314;28;20543;-87
2021/04/24 01:23:22;;;;;;;13.50;6.30;;;;;;;8.99;48.43;96816.03;5079303;28;20400;-86
2021/04/24 01:25:49;;;;;;;12.53;6.17;;;;;;;9.00;48.91;96822.88;5078866;28;20477;-86
2021/04/24 01:28:16;;;;;;;14.40;6.80;;;;;;;8.97;48.69;96821.22;5078645;28;20449;-88
2021/04/24 01:30:45;;;;;;;11.87;5.80;;;;;;;8.94;48.57;96819.56;5078268;28;20781;-88
2021/04/24 01:33:14;;;;;;;12.77;6.80;;;;;;;8.95;48.42;96820.28;5078517;28;20436;-88
2021/04/24 01:35:42;;;;;;;8.57;5.70;;;;;;;8.91;48.76;96823.28;5078988;28;20510;-87
2021/04/24 01:38:09;;;;;;;11.70;6.90;;;;;;;8.93;48.26;96817.38;5078509;28;20815;-88
2021/04/24 01:40:36;;;;;;;11.73;6.63;;;;;;;8.94;48.18;96818.84;5078321;28;20536;-88
2021/04/24 01:43:03;;;;;;;10.87;6.43;;;;;;;8.94;48.41;96813.47;5078426;28;20437;-87
2021/04/24 01:45:29;;;;;;;11.67;6.53;;;;;;;8.92;48.59;96815.94;5077109;28;20542;-88
2021/04/24 01:47:56;;;;;;;20.93;6.57;;;;;;;8.90;48.42;96821.84;5078184;28;20437;-88
2021/04/24 01:50:24;;;;;;;11.17;7.50;;;;;;;8.89;48.59;96823.09;5078303;28;20447;-87
2021/04/24 01:52:52;;;;;;;17.20;7.50;;;;;;;8.85;48.93;96811.91;5078210;28;20439;-87
2021/04/24 01:55:22;;;;;;;17.27;7.47;;;;;;;8.81;48.76;96813.44;5077848;28;20465;-88
2021/04/24 01:57:50;;;;;;;13.33;7.53;;;;;;;8.81;48.59;96811.47;5078197;28;20511;-88
2021/04/24 02:00:21;;;;;;;14.00;5.90;;;;;;;8.79;48.39;96807.88;5078556;28;20906;-87
2021/04/24 02:02:47;;;;;;;14.30;6.20;;;;;;;8.78;48.79;96812.50;5078717;28;20440;-88
2021/04/24 02:05:15;;;;;;;11.90;6.67;;;;;;;8.75;48.95;96812.81;5078210;28;20462;-87
2021/04/24 02:07:41;;;;;;;15.03;6.17;;;;;;;8.73;48.99;96815.31;5077342;28;20434;-86
2021/04/24 02:10:09;;;;;;;14.23;6.40;;;;;;;8.73;48.96;96809.94;5077926;28;20519;-87
2021/04/24 02:12:36;;;;;;;10.67;5.97;;;;;;;8.66;49.57;96811.25;5077775;28;20434;-88
2021/04/24 02:15:05;;;;;;;12.90;6.63;;;;;;;8.61;49.44;96812.81;5078039;28;20607;-88
2021/04/24 02:17:31;;;;;;;9.60;6.63;;;;;;;8.57;49.39;96808.97;5078069;28;20436;-87
2021/04/24 02:19:57;;;;;;;12.70;6.00;;;;;;;8.54;50.07;96810.00;5078468;28;20450;-86
2021/04/24 02:22:24;;;;;;;18.20;5.80;;;;;;;8.47;49.83;96805.97;5092971;28;20401;-85
2021/04/24 02:25:01;;;;;;;12.73;6.70;;;;;;;8.43;50.02;96810.91;5100019;28;20468;-84
2021/04/24 02:27:33;;;;;;;13.20;6.10;;;;;;;8.38;50.40;96813.69;5099978;28;20395;-85
2021/04/24 02:30:00;;;;;;;11.73;6.33;;;;;;;8.37;50.49;96809.56;5099966;28;20478;-84
2021/04/24 02:32:29;;;;;;;15.10;6.13;;;;;;;8.38;50.31;96808.31;5099419;28;20430;-86
2021/04/24 02:34:56;;;;;;;10.93;6.57;;;;;;;8.33;50.62;96801.78;5099801;28;20492;-86
2021/04/24 02:37:22;;;;;;;10.80;7.23;;;;;;;8.31;50.60;96806.97;5095531;28;20408;-84
2021/04/24 02:39:50;;;;;;;12.50;7.03;;;;;;;8.27;50.73;96798.44;5076576;28;21021;-84
2021/04/24 02:42:20;;;;;;;14.87;7.43;;;;;;;8.27;50.82;96798.44;5076897;28;20480;-85
2021/04/24 02:44:46;;;;;;;16.60;8.20;;;;;;;8.18;50.83;96798.81;5077177;28;20450;-84
2021/04/24 02:47:13;;;;;;;19.70;6.70;;;;;;;8.08;51.34;96797.78;5081982;28;20441;-84
2021/04/24 02:49:40;;;;;;;11.10;6.70;;;;;;;8.05;51.51;96796.81;5077309;28;20853;-84
2021/04/24 02:52:07;;;;;;;12.83;5.83;;;;;;;8.01;52.00;96793.72;5076682;28;20437;-84
2021/04/24 02:54:34;;;;;;;12.03;5.77;;;;;;;7.98;52.04;96794.75;5076956;28;20453;-84
2021/04/24 02:57:00;;;;;;;13.53;5.67;;;;;;;7.95;51.50;96789.66;5076476;28;20416;-85
2021/04/24 02:59:26;;;;;;;11.20;5.87;;;;;;;7.86;52.37;96785.38;5076275;28;20434;-84
2021/04/24 03:01:53;;;;;;;14.53;6.90;;;;;;;7.76;52.55;96786.28;5076700;28;20640;-84
2021/04/24 03:04:20;;;;;;;14.47;7.43;;;;;;;7.68;52.58;96794.19;5076774;28;20631;-85
2021/04/24 03:06:47;;;;;;;14.50;7.50;;;;;;;7.71;52.42;96787.81;5077648;28;20855;-84
2021/04/24 03:09:14;;;;;;;11.20;6.30;;;;;;;7.82;52.72;96789.63;5079754;28;20532;-84
2021/04/24 03:11:41;;;;;;;13.23;6.83;;;;;;;7.79;52.69;96794.06;5079825;28;20503;-83
2021/04/24 03:14:08;;;;;;;18.73;6.90;;;;;;;7.73;52.76;96790.00;5081300;28;20526;-83
2021/04/24 03:16:34;;;;;;;16.30;8.07;;;;;;;7.68;53.57;96782.72;5080151;28;20541;-84
2021/04/24 03:19:01;;;;;;;13.23;6.53;;;;;;;7.62;53.81;96782.81;5077856;28;20484;-84
2021/04/24 03:21:28;;;;;;;14.40;6.77;;;;;;;7.49;54.43;96780.78;5077425;28;20529;-84
2021/04/24 03:23:55;;;;;;;8.47;5.80;;;;;;;7.45;54.19;96776.94;5076928;28;20463;-84
2021/04/24 03:26:22;;;;;;;11.90;7.10;;;;;;;7.43;54.35;96772.06;5076922;28;20524;-84
2021/04/24 03:28:49;;;;;;;13.40;8.27;;;;;;;7.50;54.54;96770.78;5078241;28;20511;-84
2021/04/24 03:31:15;;;;;;;10.30;5.97;;;;;;;7.52;54.01;96770.97;5076181;28;20463;-85
2021/04/24 03:33:42;;;;;;;12.03;6.60;;;;;;;7.48;54.09;96773.25;5076358;28;20441;-86
2021/04/24 03:36:08;;;;;;;11.37;5.97;;;;;;;7.51;53.78;96770.28;5075779;28;21169;-85
2021/04/24 03:38:35;;;;;;;9.50;6.00;;;;;;;7.52;53.93;96765.59;5076501;28;20572;-86
2021/04/24 03:41:03;;;;;;;15.70;6.97;;;;;;;7.48;53.60;96768.59;5075236;28;20501;-85
2021/04/24 03:43:29;;;;;;;14.50;7.47;;;;;;;7.44;54.59;96762.06;5076304;28;20440;-84
2021/04/24 03:45:55;;;;;;;8.83;5.90;;;;;;;7.42;54.00;96764.53;5075514;28;20461;-83
2021/04/24 03:48:21;;;;;;;10.97;6.33;;;;;;;7.39;54.39;96766.25;5075849;28;20441;-85
2021/04/24 03:50:47;;;;;;;11.20;7.23;;;;;;;7.39;54.62;96760.91;5076103;28;20430;-85
2021/04/24 03:53:13;;;;;;;11.60;6.50;;;;;;;7.38;54.32;96767.53;5076289;28;20468;-84
2021/04/24 03:55:39;;;;;;;11.20;5.83;;;;;;;7.40;53.88;96767.72;5076127;28;20999;-84
2021/04/24 03:58:06;;;;;;;16.60;7.40;;;;;;;7.44;53.80;96776.22;5076609;28;20832;-83
2021/04/24 04:00:33;;;;;;;22.30;7.53;;;;;;;7.47;54.38;96775.19;5076605;28;20499;-84
2021/04/24 04:03:01;;;;;;;17.90;6.43;;;;;;;7.50;54.51;96773.47;5075196;28;20528;-85
2021/04/24 04:05:30;;;;;;;14.10;7.37;;;;;;;7.49;54.82;96778.09;5076581;28;20501;-85
2021/04/24 04:07:57;;;;;;;12.13;7.10;;;;;;;7.57;54.14;96772.88;5076310;28;20456;-84
2021/04/24 04:10:24;;;;;;;10.67;5.83;;;;;;;7.61;54.17;96780.66;5077101;28;20430;-84
2021/04/24 04:12:50;;;;;;;11.47;6.87;;;;;;;7.61;54.32;96780.66;5076247;28;20930;-84
2021/04/24 04:15:18;;;;;;;17.77;6.50;;;;;;;7.64;54.10;96776.94;5076788;28;20460;-84
2021/04/24 04:17:50;;;;;;;17.57;8.33;;;;;;;7.68;54.09;96783.44;5068851;28;20464;-84
2021/04/24 04:20:16;;;;;;;15.67;6.90;;;;;;;7.73;53.69;96781.94;5076593;28;20485;-83
2021/04/24 04:22:42;;;;;;;16.23;6.63;;;;;;;7.74;53.68;96778.00;5076825;28;20449;-85
2021/04/24 04:25:10;;;;;;;15.43;7.60;;;;;;;7.74;53.84;96788.75;5078485;28;20438;-84
2021/04/24 04:27:36;;;;;;;14.17;8.07;;;;;;;7.75;54.39;96779.47;5079991;28;20433;-83
2021/04/24 04:30:03;;;;;;;14.23;6.80;;;;;;;7.81;54.06;96791.56;5078843;28;20909;-84
2021/04/24 04:32:30;;;;;;;9.37;6.67;;;;;;;7.89;53.92;96795.09;5077099;28;20986;-83
2021/04/24 04:34:56;;;;;;;13.40;7.10;;;;;;;7.97;54.02;96790.59;5076817;28;20432;-85
2021/04/24 04:37:22;;;;;;;13.13;6.63;;;;;;;8.05;53.46;96798.78;5076183;28;20429;-85
2021/04/24 04:39:48;;;;;;;13.80;6.83;;;;;;;8.16;53.52;96798.63;5079394;28;20452;-86
2021/04/24 04:42:14;;;;;;;17.00;7.07;;;;;;;8.19;54.17;96794.91;5080320;28;20561;-85
2021/04/24 04:44:40;;;;;;;17.37;6.90;;;;;;;8.29;53.79;96800.66;5080490;28;20404;-87
2021/04/24 04:47:06;;;;;;;20.50;8.37;;;;;;;8.45;53.82;96803.06;5080083;28;20435;-86
2021/04/24 04:49:33;;;;;;;14.97;7.23;;;;;;;8.57;54.09;96806.28;5080387;28;20932;-86
2021/04/24 04:51:59;;;;;;;15.87;7.70;;;;;;;8.83;53.20;96803.63;5079800;28;20502;-86
2021/04/24 04:54:25;;;;;;;11.90;7.43;;;;;;;9.08;52.92;96817.59;5079788;28;20558;-86
2021/04/24 04:56:51;;;;;;;12.83;6.20;;;;;;;9.28;52.50;96798.13;5079710;28;20818;-86
2021/04/24 04:59:18;;;;;;;15.47;7.43;;;;;;;9.65;51.43;96808.59;5080244;28;20446;-86
2021/04/24 05:01:44;;;;;;;15.73;8.07;;;;;;;9.95;50.83;96810.16;5071122;28;20538;-86
2021/04/24 05:04:10;;;;;;;14.67;7.73;;;;;;;10.52;49.62;96813.75;5079689;28;20532;-87
2021/04/24 05:06:37;;;;;;;14.53;7.53;;;;;;;11.18;48.61;96822.13;5079356;28;20447;-87
2021/04/24 05:09:03;;;;;;;15.00;6.80;;;;;;;11.50;46.73;96813.59;5080217;28;20445;-85
2021/04/24 05:11:29;;;;;;;14.50;6.37;;;;;;;11.95;46.16;96823.88;5079092;28;20840;-85
2021/04/24 05:13:55;;;;;;;14.03;7.77;;;;;;;12.39;44.70;96829.88;5079311;28;20536;-85
2021/04/24 05:16:21;;;;;;;16.03;6.80;;;;;;;12.28;44.83;96822.81;5078894;28;20523;-85
2021/04/24 05:18:47;;;;;;;16.80;8.13;;;;;;;11.98;45.14;96823.50;5078079;28;20432;-85
2021/04/24 05:21:14;;;;;;;15.93;8.00;;;;;;;12.01;45.14;96833.25;5086433;28;20465;-86
2021/04/24 05:23:41;;;;;;;11.53;6.83;;;;;;;11.94;45.47;96825.13;5100483;28;20420;-86
2021/04/24 05:26:07;;;;;;;16.63;6.90;;;;;;;11.89;45.31;96831.41;5100613;28;20479;-85
2021/04/24 05:28:33;;;;;;;11.40;6.40;;;;;;;11.88;45.13;96821.84;5100954;28;20476;-86
2021/04/24 05:30:59;;;;;;;13.20;8.10;;;;;;;12.07;44.75;96825.69;5087628;28;20495;-84
2021/04/24 05:33:25;;;;;;;12.00;8.13;;;;;;;12.22;44.85;96839.25;5078369;28;20448;-84
2021/04/24 05:35:52;;;;;;;12.40;7.80;;;;;;;12.42;44.48;96831.50;5077953;28;20619;-85
2021/04/24 05:38:19;;;;;;;14.93;9.43;;;;;;;12.57;44.31;96832.22;5078739;28;20408;-85
2021/04/24 05:40:45;;;;;;;13.27;8.90;;;;;;;12.79;43.43;96836.19;5078374;28;20466;-85
2021/04/24 05:43:11;;;;;;;15.77;8.63;;;;;;;13.12;43.27;96848.66;5078274;28;20473;-84
2021/04/24 05:45:38;;;;;;;15.33;8.57;;;;;;;13.64;42.22;96847.03;5078830;28;20461;-85
2021/04/24 05:48:04;;;;;;;17.30;8.40;;;;;;;13.97;40.93;96847.78;5078199;28;20473;-85
2021/04/24 05:50:30;;;;;;;13.50;7.93;;;;;;;14.23;40.65;96852.72;5078239;28;20814;-85
2021/04/24 05:52:57;;;;;;;15.00;9.27;;;;;;;14.55;39.50;96851.25;5078534;28;20524;-85
2021/04/24 05:55:23;;;;;;;13.63;7.53;;;;;;;14.85;39.28;96849.03;5077961;28;20553;-84
2021/04/24 05:57:50;;;;;;;15.33;7.43;;;;;;;15.03;38.72;96850.47;5078591;28;20441;-85
2021/04/24 06:00:18;;;;;;;14.43;8.67;;;;;;;14.81;38.58;96848.72;5078602;28;20564;-85
2021/04/24 06:02:45;;;;;;;13.27;8.43;;;;;;;14.97;38.48;96843.88;5078073;28;20478;-85
2021/04/24 06:05:11;;;;;;;14.20;8.47;;;;;;;15.15;38.16;96850.03;5078130;28;20496;-85
2021/04/24 06:07:39;;;;;;;17.63;9.43;;;;;;;15.53;37.73;96853.09;5078231;28;20480;-86
2021/04/24 06:10:07;;;;;;;13.97;9.00;;;;;;;15.92;36.58;96849.34;5077625;28;20509;-85
2021/04/24 06:12:33;;;;;;;17.80;8.40;;;;;;;15.84;36.72;96856.91;5077892;28;20430;-85
2021/04/24 06:15:00;;;;;;;14.10;9.03;;;;;;;16.21;35.69;96852.22;5077984;28;20991;-86
2021/04/24 06:17:26;;;;;;;13.20;8.50;;;;;;;16.29;35.95;96861.00;5082091;28;20454;-86
2021/04/24 06:19:52;;;;;;;19.83;9.73;;;;;;;16.30;35.95;96856.28;5078788;28;20461;-85
2021/04/24 06:22:19;;;;;;;13.80;8.53;;;;;;;16.72;34.68;96856.06;5077564;28;20540;-86
2021/04/24 06:24:45;;;;;;;16.50;8.97;;;;;;;17.38;34.41;96860.19;5077002;28;20466;-88
2021/04/24 06:27:11;;;;;;;17.40;9.30;;;;;;;17.22;33.79;96864.47;5078235;28;20447;-86
2021/04/24 06:29:37;;;;;;;11.90;8.00;;;;;;;17.44;33.42;96868.81;5078217;28;20521;-87
2021/04/24 06:32:05;;;;;;;14.60;8.77;;;;;;;17.65;33.03;96858.78;5077061;28;20528;-86
2021/04/24 06:34:31;;;;;;;11.47;7.13;;;;;;;17.85;32.83;96859.47;5080543;28;21019;-91
2021/04/24 06:36:57;;;;;;;14.80;8.27;;;;;;;17.80;32.86;96857.03;5081819;28;20446;-88
2021/04/24 06:39:23;;;;;;;15.80;8.63;;;;;;;17.52;33.47;96855.72;5077970;28;20456;-87
2021/04/24 06:41:49;;;;;;;11.90;7.20;;;;;;;17.56;33.06;96859.50;5078230;28;20564;-88
2021/04/24 06:44:16;;;;;;;10.13;7.63;;;;;;;16.52;34.75;96861.41;5078546;28;20448;-87
2021/04/24 06:46:42;;;;;;;16.63;8.70;;;;;;;16.89;34.69;96861.38;5077546;28;20809;-88
2021/04/24 06:49:10;;;;;;;11.93;8.63;;;;;;;16.98;34.64;96855.97;5077749;28;20437;-87
2021/04/24 06:51:36;;;;;;;17.10;8.40;;;;;;;17.08;34.86;96858.72;5077796;28;20449;-87
2021/04/24 06:54:03;;;;;;;16.83;7.63;;;;;;;17.31;33.70;96866.50;5078077;28;20433;-87
2021/04/24 06:56:29;;;;;;;13.60;8.03;;;;;;;17.64;33.62;96862.06;5076772;28;20552;-87
2021/04/24 06:58:55;;;;;;;11.60;8.23;;;;;;;17.82;33.35;96859.91;5078054;28;20500;-87
2021/04/24 07:01:21;;;;;;;14.17;8.90;;;;;;;18.05;33.26;96871.78;5077688;28;20491;-86
2021/04/24 07:03:47;;;;;;;12.23;7.87;;;;;;;18.63;32.38;96871.66;5077902;28;20499;-87
2021/04/24 07:06:14;;;;;;;17.50;9.07;;;;;;;18.05;33.29;96869.06;5077641;28;20493;-86
2021/04/24 07:08:40;;;;;;;19.23;8.50;;;;;;;17.81;33.68;96861.91;5077560;28;20527;-87
2021/04/24 07:11:07;;;;;;;14.43;8.67;;;;;;;18.18;32.69;96870.63;5077786;28;20509;-85
2021/04/24 07:13:33;;;;;;;13.87;8.30;;;;;;;18.67;32.58;96867.16;5077791;28;20474;-85
2021/04/24 07:16:02;;;;;;;13.20;8.80;;;;;;;18.92;32.17;96866.06;5077828;28;20978;-86
2021/04/24 07:18:29;;;;;;;13.43;8.00;;;;;;;19.41;31.30;96867.91;5076766;28;20473;-86
2021/04/24 07:20:55;;;;;;;11.13;7.83;;;;;;;19.63;30.98;96874.81;5076724;28;20631;-86
2021/04/24 07:23:22;;;;;;;12.73;7.70;;;;;;;19.47;30.62;96871.03;5077011;28;20472;-85
2021/04/24 07:25:48;;;;;;;20.43;9.07;;;;;;;19.18;31.03;96868.47;5077239;28;20469;-86
2021/04/24 07:28:16;;;;;;;12.97;8.80;;;;;;;19.26;30.79;96866.25;5076902;28;20498;-85
2021/04/24 07:30:42;;;;;;;12.33;8.30;;;;;;;19.16;31.05;96864.88;5079404;28;20930;-85
2021/04/24 07:33:08;;;;;;;15.30;8.33;;;;;;;18.96;31.66;96869.75;5076703;28;20544;-86
2021/04/24 07:35:34;;;;;;;15.03;8.70;;;;;;;19.11;31.14;96857.69;5076980;28;20468;-85
2021/04/24 07:38:00;;;;;;;16.77;8.70;;;;;;;19.02;31.79;96867.41;5078301;28;20488;-85
2021/04/24 07:40:27;;;;;;;16.70;8.23;;;;;;;18.93;31.64;96870.19;5076226;28;20939;-85
2021/04/24 07:42:53;;;;;;;14.43;8.03;;;;;;;18.50;32.56;96869.41;5077480;28;20525;-84
2021/04/24 07:45:19;;;;;;;12.17;8.77;;;;;;;18.81;31.77;96870.13;5078299;28;20520;-85
2021/04/24 07:47:48;;;;;;;12.40;8.10;;;;;;;18.58;32.43;96862.44;5077530;28;20491;-86
2021/04/24 07:50:17;;;;;;;12.37;8.17;;;;;;;18.86;31.70;96860.19;5077773;28;20445;-85
2021/04/24 07:52:44;;;;;;;20.10;7.10;;;;;;;18.65;31.85;96867.03;5078511;28;20454;-86
2021/04/24 07:55:10;;;;;;;20.10;8.60;;;;;;;18.78;32.29;96865.09;5075953;28;20540;-86
2021/04/24 07:57:37;;;;;;;15.50;7.60;;;;;;;18.57;32.31;96861.03;5075927;28;20528;-87
2021/04/24 08:00:04;;;;;;;17.43;8.60;;;;;;;18.25;33.02;96863.56;5077185;28;20532;-87
2021/04/24 08:02:30;;;;;;;15.90;8.10;;;;;;;18.02;32.82;96859.28;5076460;28;20813;-86
2021/04/24 08:04:56;;;;;;;16.37;9.23;;;;;;;18.53;32.32;96857.31;5077840;28;20861;-87
2021/04/24 08:07:22;;;;;;;17.13;9.60;;;;;;;18.71;32.18;96858.50;5076943;28;20434;-86
2021/04/24 08:09:48;;;;;;;11.60;8.03;;;;;;;18.41;32.73;96856.47;5078106;28;20441;-87
2021/04/24 08:12:14;;;;;;;11.53;8.20;;;;;;;18.10;32.75;96861.88;5078628;28;20494;-87
2021/04/24 08:14:41;;;;;;;13.80;8.60;;;;;;;18.53;32.40;96862.75;5082286;28;20526;-87
2021/04/24 08:17:07;;;;;;;12.30;8.60;;;;;;;18.52;31.22;96858.59;5082064;28;20879;-87
2021/04/24 08:19:33;;;;;;;13.27;8.57;;;;;;;18.87;31.34;96867.78;5082442;28;20443;-86
2021/04/24 08:22:00;;;;;;;12.87;8.00;;;;;;;18.43;29.92;96862.78;5090512;28;20484;-85
2021/04/24 08:24:26;;;;;;;15.60;9.50;;;;;;;18.60;31.70;96859.88;5101110;28;20457;-85
2021/04/24 08:26:55;;;;;;;14.03;9.67;;;;;;;18.41;32.99;96864.66;5100756;28;20453;-84
2021/04/24 08:29:25;;;;;;;17.57;9.20;;;;;;;18.55;32.34;96857.44;5100635;28;20472;-91
2021/04/24 08:31:52;;;;;;;17.83;8.80;;;;;;;18.41;31.49;96854.44;5091387;28;20444;-89
2021/04/24 08:34:26;;;;;;;16.03;8.67;;;;;;;18.48;31.68;96861.03;5081804;28;20449;-89
2021/04/24 08:36:53;;;;;;;16.33;7.83;;;;;;;18.48;32.02;96861.75;5081977;28;20440;-89
2021/04/24 08:39:25;;;;;;;18.17;9.10;;;;;;;17.45;33.51;96851.13;5082308;28;20425;-89
2021/04/24 08:41:51;;;;;;;15.53;9.70;;;;;;;17.57;33.46;96843.84;5083534;28;21007;-89
2021/04/24 08:44:18;;;;;;;11.20;8.77;;;;;;;17.42;32.95;96849.53;5080974;28;20536;-88
2021/04/24 08:46:49;;;;;;;11.50;9.03;;;;;;;17.30;33.18;96846.69;5081485;28;20523;-90
2021/04/24 08:49:18;;;;;;;11.10;8.03;;;;;;;16.71;34.18;96840.97;5082636;28;20426;-90
2021/04/24 08:51:44;;;;;;;16.67;8.40;;;;;;;16.55;33.43;96832.31;5071666;28;20473;-87
2021/04/24 08:54:10;;;;;;;13.80;8.33;;;;;;;16.99;33.23;96832.88;5081373;28;20488;-89
2021/04/24 08:56:40;;;;;;;16.47;9.10;;;;;;;17.50;32.95;96839.94;5083357;28;20473;-89
2021/04/24 08:59:08;;;;;;;15.70;9.10;;;;;;;17.09;33.07;96832.88;5099098;28;20422;-88
2021/04/24 09:01:34;;;;;;;10.93;8.70;;;;;;;16.96;33.38;96836.75;5099143;28;20537;-88
2021/04/24 09:04:00;;;;;;;13.70;8.40;;;;;;;16.65;33.53;96833.06;5098899;28;20532;-88
2021/04/24 09:06:29;;;;;;;16.40;8.47;;;;;;;16.50;33.51;96831.28;5086774;28;20477;-89
2021/04/24 09:08:58;;;;;;;16.60;8.80;;;;;;;16.45;33.40;96831.53;5081138;28;20473;-86
2021/04/24 09:11:25;;;;;;;14.50;8.27;;;;;;;16.43;33.96;96829.41;5080840;28;20469;-86
2021/04/24 09:14:02;;;;;;;14.30;8.47;;;;;;;16.48;34.06;96822.22;5083008;28;20440;-88
2021/04/24 09:16:28;;;;;;;23.87;9.30;;;;;;;16.45;33.31;96826.09;5083334;28;20451;-86
2021/04/24 09:18:55;;;;;;;12.90;8.10;;;;;;;16.46;33.30;96817.38;5082417;28;20532;-87
2021/04/24 09:21:23;;;;;;;12.97;8.57;;;;;;;16.89;32.26;96817.78;5081711;28;20505;-86
2021/04/24 09:23:50;;;;;;;17.57;9.70;;;;;;;17.12;32.36;96813.38;5080258;28;20495;-86
2021/04/24 09:26:27;;;;;;;21.97;9.40;;;;;;;16.78;32.32;96816.34;5079481;28;20476;-89
2021/04/24 09:29:02;;;;;;;15.00;8.80;;;;;;;16.39;32.66;96817.47;5081768;28;20551;-86
2021/04/24 09:31:29;;;;;;;11.83;8.53;;;;;;;16.57;32.46;96816.84;5081005;28;20801;-87
2021/04/24 09:33:59;;;;;;;18.33;8.80;;;;;;;16.71;32.68;96811.72;5079899;28;20445;-86
2021/04/24 09:36:34;;;;;;;12.00;7.67;;;;;;;16.80;32.89;96805.56;5079367;28;20452;-86
2021/04/24 09:39:04;;;;;;;13.13;8.40;;;;;;;17.01;32.10;96808.47;5080051;28;20429;-85
2021/04/24 09:41:33;;;;;;;17.33;9.13;;;;;;;16.74;31.72;96813.31;5079903;28;20463;-86
2021/04/24 09:54:21;;;;;;;14.00;7.33;;;;;;;16.80;30.58;96794.66;5060164;28;20827;-86
2021/04/24 09:56:58;;;;;;;17.83;9.10;;;;;;;16.92;31.01;96790.09;5061060;28;20444;-86
2021/04/24 09:59:25;;;;;;;14.20;8.90;;;;;;;17.13;30.72;96781.38;5060412;28;20438;-87
2021/04/24 10:01:57;;;;;;;11.33;8.33;;;;;;;17.15;30.25;96784.22;5060046;28;20591;-89
2021/04/24 10:04:27;;;;;;;14.27;8.13;;;;;;;17.20;30.07;96787.97;5065503;28;20458;-89
2021/04/24 10:06:55;;;;;;;13.67;8.97;;;;;;;17.24;29.97;96774.59;5062713;28;20429;-86
2021/04/24 10:09:24;;;;;;;17.70;8.70;;;;;;;17.39;30.10;96780.47;5060157;28;20450;-88
2021/04/24 10:12:05;;;;;;;14.53;8.47;;;;;;;17.19;30.84;96770.16;5060484;28;20564;-88
2021/04/24 10:14:33;;;;;;;13.70;8.90;;;;;;;16.86;30.86;96773.28;5062162;28;20422;-87
2021/04/24 10:17:05;;;;;;;15.47;9.60;;;;;;;16.70;29.79;96763.94;5062224;28;20427;-90
2021/04/24 10:19:34;;;;;;;14.63;8.30;;;;;;;16.99;30.42;96761.97;5065561;28;20458;-89
2021/04/24 10:22:06;;;;;;;14.80;8.33;;;;;;;16.92;29.27;96765.56;5063673;28;20486;-88
2021/04/24 10:24:33;;;;;;;13.17;8.20;;;;;;;17.20;29.04;96768.88;5061562;28;20419;-87
2021/04/24 10:27:00;;;;;;;15.43;8.27;;;;;;;17.32;28.49;96767.00;5063128;28;20572;-91
2021/04/24 10:29:30;;;;;;;16.03;8.90;;;;;;;17.50;28.52;96762.81;5061123;28;20521;-91
2021/04/24 10:31:57;;;;;;;17.20;9.07;;;;;;;17.43;28.13;96758.22;5064364;28;20513;-89
2021/04/24 10:34:27;;;;;;;15.13;8.97;;;;;;;17.68;28.27;96766.81;5064361;28;20761;-88
2021/04/24 10:36:54;;;;;;;13.50;9.00;;;;;;;17.63;28.59;96763.13;5062330;28;21068;-89
2021/04/24 10:39:23;;;;;;;14.10;8.30;;;;;;;17.67;28.28;96764.69;5062177;28;20435;-86
2021/04/24 10:41:58;;;;;;;15.97;9.07;;;;;;;17.78;28.15;96759.34;5057761;28;20509;-85
2021/04/24 10:44:45;;;;;;;14.27;9.83;;;;;;;17.95;28.00;96761.16;5062774;28;20449;-87
2021/04/24 10:47:12;;;;;;;16.97;9.00;;;;;;;18.19;28.34;96763.50;5060787;28;20438;-87
2021/04/24 10:49:53;;;;;;;15.50;9.27;;;;;;;17.99;28.98;96756.66;5060682;28;20425;-88
2021/04/24 10:52:20;;;;;;;17.23;8.97;;;;;;;18.04;28.45;96752.91;5064383;28;20923;-86
2021/04/24 10:55:19;;;;;;;13.63;9.30;;;;;;;17.84;28.73;96753.56;5076171;28;20438;-90
2021/04/24 10:57:48;;;;;;;15.17;9.00;;;;;;;17.73;28.73;96752.16;5077993;28;20465;-93
2021/04/24 11:00:22;;;;;;;16.87;9.67;;;;;;;17.84;28.43;96739.91;5069797;28;20432;-93
2021/04/24 11:02:50;;;;;;;11.83;9.23;;;;;;;17.57;28.96;96743.56;5054928;28;20490;-94
2021/04/24 11:05:30;;;;;;;16.50;9.00;;;;;;;17.39;29.02;96750.47;5057893;28;20475;-93
2021/04/24 11:08:36;;;;;;;13.13;8.57;;;;;;;17.50;28.48;96743.72;5050731;28;20431;-92
2021/04/24 11:11:07;;;;;;;22.90;10.07;;;;;;;17.49;29.11;96756.63;5046212;28;20431;-87
2021/04/24 11:13:37;;;;;;;17.57;9.40;;;;;;;17.68;27.33;96734.06;5060318;28;20443;-89
2021/04/24 11:16:13;;;;;;;15.97;8.50;;;;;;;17.92;27.82;96732.97;5058125;28;20508;-87
2021/04/24 11:18:41;;;;;;;20.77;10.07;;;;;;;18.10;27.13;96725.31;5046146;28;20412;-88
2021/04/24 11:21:10;;;;;;;13.83;8.90;;;;;;;18.23;28.36;96727.50;5046423;28;20490;-91
2021/04/24 11:23:51;;;;;;;16.60;8.77;;;;;;;17.97;27.88;96723.78;5053037;28;20530;-88
2021/04/24 11:26:23;;;;;;;14.03;8.77;;;;;;;17.83;27.75;96719.34;5076758;22;20574;-89
2021/04/24 11:29:08;;;;;;;17.07;9.90;;;;;;;17.75;27.52;96721.56;5093426;28;20425;-90
2021/04/24 11:31:59;;;;;;;14.93;9.03;;;;;;;17.74;27.63;96722.84;5102080;28;20966;-89
2021/04/24 11:34:45;;;;;;;15.67;10.43;;;;;;;17.97;27.70;96710.13;5094927;28;20452;-89
2021/04/24 11:37:35;;;;;;;17.93;9.30;;;;;;;18.37;27.47;96711.34;5080849;28;20434;-89
2021/04/24 11:40:18;;;;;;;13.93;8.73;;;;;;;18.31;27.05;96708.94;5065264;28;20529;-89
2021/04/24 11:43:09;;;;;;;15.43;9.33;;;;;;;18.12;27.25;96715.22;5068388;28;20558;-88